createdAt,value
2018-08-12T00:02:17.419Z,2.00
2018-08-12T00:04:53.862Z,2.00
2018-08-12T00:07:27.242Z,2.00
2018-08-12T00:10:00.445Z,2.00
2018-08-12T00:12:32.500Z,2.40
2018-08-12T00:15:07.306Z,2.00
2018-08-12T00:17:38.446Z,1.40
2018-08-12T00:20:14.298Z,2.00
2018-08-12T00:22:47.133Z,2.80
2018-08-12T00:25:20.197Z,3.20
2018-08-12T00:27:51.285Z,2.40
2018-08-12T00:30:32.064Z,4.00
2018-08-12T00:33:03.541Z,1.80
2018-08-12T00:35:35.999Z,2.00
2018-08-12T00:38:07.228Z,2.00
2018-08-12T00:40:39.897Z,3.20
2018-08-12T00:43:10.904Z,2.00
2018-08-12T00:45:42.352Z,2.40
2018-08-12T00:48:13.415Z,3.60
2018-08-12T00:50:47.461Z,2.00
2018-08-12T00:53:19.268Z,2.00
2018-08-12T00:55:51.373Z,4.00
2018-08-12T00:58:22.537Z,3.60
2018-08-12T01:00:56.113Z,4.00
2018-08-12T01:03:27.302Z,4.00
2018-08-12T01:05:58.401Z,2.00
2018-08-12T01:08:29.476Z,4.00
2018-08-12T01:11:01.146Z,4.00
2018-08-12T01:13:33.237Z,2.40
2018-08-12T01:16:04.634Z,4.00
2018-08-12T01:18:36.378Z,4.00
2018-08-12T01:21:08.365Z,2.80
2018-08-12T01:23:39.425Z,3.80
2018-08-12T01:26:10.604Z,2.40
2018-08-12T01:28:41.773Z,2.00
2018-08-12T01:31:12.830Z,4.20
2018-08-12T01:33:43.388Z,4.00
2018-08-12T01:36:15.148Z,2.80
2018-08-12T01:38:46.261Z,2.40
2018-08-12T01:41:17.650Z,2.00
2018-08-12T01:43:49.464Z,2.40
2018-08-12T01:46:20.549Z,4.40
2018-08-12T01:48:54.462Z,4.80
2018-08-12T01:51:26.925Z,3.20
2018-08-12T01:53:58.789Z,4.00
2018-08-12T01:56:29.836Z,4.20
2018-08-12T01:59:01.315Z,4.00
2018-08-12T02:01:32.434Z,2.40
2018-08-12T02:04:04.753Z,3.60
2018-08-12T02:06:36.626Z,3.80
2018-08-12T02:09:12.144Z,4.20
2018-08-12T02:11:43.421Z,4.00
2018-08-12T02:14:13.735Z,5.00
2018-08-12T02:16:45.055Z,5.40
2018-08-12T02:19:16.413Z,4.00
2018-08-12T02:21:46.650Z,4.67
2018-08-12T02:24:18.185Z,4.00
2018-08-12T02:26:49.596Z,3.20
2018-08-12T02:29:19.888Z,4.00
2018-08-12T02:31:50.992Z,4.00
2018-08-12T02:34:22.513Z,4.00
2018-08-12T02:36:52.773Z,4.00
2018-08-12T02:39:23.860Z,3.00
2018-08-12T02:41:55.194Z,3.60
2018-08-12T02:44:26.222Z,4.00
2018-08-12T02:46:57.752Z,3.60
2018-08-12T02:49:29.637Z,3.00
2018-08-12T02:52:00.738Z,3.20
2018-08-12T02:54:31.817Z,4.00
2018-08-12T02:57:02.402Z,3.00
2018-08-12T02:59:33.510Z,4.00
2018-08-12T03:02:04.661Z,3.20
2018-08-12T03:04:37.989Z,3.20
2018-08-12T03:07:08.229Z,4.00
2018-08-12T03:09:39.736Z,4.00
2018-08-12T03:12:10.807Z,4.00
2018-08-12T03:14:41.852Z,3.20
2018-08-12T03:17:12.922Z,3.00
2018-08-12T03:19:44.058Z,4.00
2018-08-12T03:22:15.265Z,3.80
2018-08-12T03:24:46.573Z,3.00
2018-08-12T03:27:17.631Z,4.00
2018-08-12T03:29:48.672Z,3.60
2018-08-12T03:32:20.707Z,3.20
2018-08-12T03:34:52.665Z,4.00
2018-08-12T03:37:23.778Z,3.40
2018-08-12T03:39:54.919Z,3.00
2018-08-12T03:42:26.057Z,4.00
2018-08-12T03:44:57.178Z,3.00
2018-08-12T03:47:28.217Z,4.00
2018-08-12T03:49:59.716Z,3.00
2018-08-12T03:52:30.747Z,3.60
2018-08-12T03:55:01.884Z,4.00
2018-08-12T03:57:33.734Z,3.60
2018-08-12T04:00:21.506Z,4.00
2018-08-12T04:02:53.594Z,4.40
2018-08-12T04:05:25.080Z,4.00
2018-08-12T04:07:56.125Z,5.60
2018-08-12T04:10:26.382Z,3.00
2018-08-12T04:12:57.445Z,3.20
2018-08-12T04:15:28.548Z,4.40
2018-08-12T04:17:59.630Z,3.00
2018-08-12T04:20:30.724Z,4.40
2018-08-12T04:23:03.542Z,4.00
2018-08-12T04:25:34.682Z,3.40
2018-08-12T04:28:06.549Z,3.00
2018-08-12T04:30:37.708Z,4.00
2018-08-12T04:33:07.894Z,4.00
2018-08-12T04:35:38.940Z,4.00
2018-08-12T04:38:09.981Z,6.00
2018-08-12T04:40:40.256Z,6.00
2018-08-12T04:43:11.350Z,4.00
2018-08-12T04:45:42.406Z,5.60
2018-08-12T04:48:13.487Z,6.00
2018-08-12T04:50:44.856Z,4.67
2018-08-12T04:53:15.938Z,4.40
2018-08-12T04:55:46.215Z,5.67
2018-08-12T04:58:17.296Z,4.00
2018-08-12T05:00:48.456Z,6.00
2018-08-12T05:03:18.770Z,4.00
2018-08-12T05:05:49.850Z,4.00
2018-08-12T05:08:22.918Z,4.00
2018-08-12T05:10:53.580Z,4.33
2018-08-12T05:13:23.817Z,4.00
2018-08-12T05:15:54.039Z,5.33
2018-08-12T05:18:25.596Z,4.80
2018-08-12T05:20:55.813Z,4.00
2018-08-12T05:23:26.502Z,4.00
2018-08-12T05:25:57.690Z,4.20
2018-08-12T05:28:29.061Z,5.00
2018-08-12T05:31:00.408Z,4.60
2018-08-12T05:33:30.620Z,4.33
2018-08-12T05:36:00.922Z,5.00
2018-08-12T05:38:33.888Z,7.00
2018-08-12T05:41:05.028Z,4.00
2018-08-12T05:43:36.611Z,4.00
2018-08-12T05:46:06.875Z,5.00
2018-08-12T05:48:37.934Z,5.00
2018-08-12T05:51:09.513Z,4.40
2018-08-12T05:53:40.786Z,5.60
2018-08-12T05:56:10.927Z,5.00
2018-08-12T05:58:43.278Z,5.60
2018-08-12T06:01:13.494Z,5.00
2018-08-12T06:03:44.903Z,5.00
2018-08-12T06:06:16.270Z,5.40
2018-08-12T06:08:47.345Z,4.80
2018-08-12T06:11:17.815Z,5.67
2018-08-12T06:13:48.609Z,5.00
2018-08-12T06:16:18.918Z,5.67
2018-08-12T06:18:49.960Z,5.00
2018-08-12T06:21:20.540Z,5.67
2018-08-12T06:23:51.229Z,6.00
2018-08-12T06:26:22.494Z,6.80
2018-08-12T06:28:52.733Z,5.00
2018-08-12T06:31:23.840Z,5.75
2018-08-12T06:33:55.218Z,5.00
2018-08-12T06:36:26.280Z,6.00
2018-08-12T06:38:57.287Z,6.00
2018-08-12T06:41:28.302Z,6.00
2018-08-12T06:43:59.756Z,5.33
2018-08-12T06:46:30.902Z,5.80
2018-08-12T06:49:02.372Z,5.20
2018-08-12T06:51:33.209Z,6.00
2018-08-12T06:54:03.911Z,6.00
2018-08-12T06:56:37.045Z,6.00
2018-08-12T06:59:07.951Z,5.67
2018-08-12T07:01:39.662Z,5.00
2018-08-12T07:04:09.870Z,3.67
2018-08-12T07:06:40.396Z,4.33
2018-08-12T07:09:12.187Z,6.00
2018-08-12T07:11:43.607Z,4.67
2018-08-12T07:14:15.173Z,3.67
2018-08-12T07:16:52.954Z,3.60
2018-08-12T07:19:24.434Z,4.00
2018-08-12T07:21:56.186Z,6.00
2018-08-12T07:24:26.392Z,4.00
2018-08-12T07:26:57.488Z,4.40
2018-08-12T07:29:28.570Z,4.80
2018-08-12T07:31:59.680Z,4.40
2018-08-12T07:34:30.748Z,6.60
2018-08-12T07:37:02.800Z,4.00
2018-08-12T07:39:33.862Z,5.40
2018-08-12T07:42:04.097Z,4.33
2018-08-12T07:44:35.308Z,4.00
2018-08-12T07:47:06.405Z,4.00
2018-08-12T07:49:38.621Z,4.40
2018-08-12T07:52:09.784Z,4.80
2018-08-12T07:54:42.866Z,3.00
2018-08-12T07:57:14.832Z,5.00
2018-08-12T07:59:46.053Z,4.60
2018-08-12T08:02:17.313Z,4.60
2018-08-12T08:04:50.135Z,4.60
2018-08-12T08:07:21.219Z,3.80
2018-08-12T08:09:52.329Z,4.20
2018-08-12T08:12:24.458Z,4.00
2018-08-12T08:14:55.527Z,4.00
2018-08-12T08:17:27.663Z,4.00
2018-08-12T08:19:58.786Z,4.00
2018-08-12T08:22:29.965Z,3.00
2018-08-12T08:25:02.696Z,2.20
2018-08-12T08:27:33.759Z,3.00
2018-08-12T08:30:07.383Z,3.00
2018-08-12T08:32:40.635Z,3.00
2018-08-12T08:35:12.479Z,3.00
2018-08-12T08:37:44.621Z,3.00
2018-08-12T08:40:18.402Z,3.60
2018-08-12T08:42:50.092Z,4.00
2018-08-12T08:47:59.155Z,2.60
2018-08-12T08:50:30.552Z,3.00
2018-08-12T08:53:01.802Z,3.60
2018-08-12T08:55:32.951Z,3.20
2018-08-12T08:58:04.272Z,4.00
2018-08-12T09:00:36.448Z,3.20
2018-08-12T09:03:08.443Z,3.00
2018-08-12T09:05:39.627Z,3.60
2018-08-12T09:08:10.859Z,3.00
2018-08-12T09:10:43.598Z,3.00
2018-08-12T09:13:22.096Z,4.20
2018-08-12T09:15:56.101Z,3.80
2018-08-12T09:18:28.834Z,3.00
2018-08-12T09:21:00.341Z,3.60
2018-08-12T09:23:41.448Z,3.00
2018-08-12T09:26:13.131Z,2.60
2018-08-12T09:28:44.162Z,3.80
2018-08-12T09:31:15.477Z,2.40
2018-08-12T09:33:46.547Z,1.00
2018-08-12T09:36:19.813Z,2.00
2018-08-12T09:38:51.833Z,1.60
2018-08-12T09:43:51.697Z,1.00
2018-08-12T09:46:22.758Z,1.80
2018-08-12T09:48:54.450Z,2.00
2018-08-12T09:51:27.908Z,3.00
2018-08-12T09:54:01.622Z,1.20
2018-08-12T09:56:33.109Z,2.00
2018-08-12T09:59:05.237Z,2.00
2018-08-12T10:01:36.776Z,2.00
2018-08-12T10:04:10.635Z,2.20
2018-08-12T10:06:42.866Z,2.20
2018-08-12T10:09:14.035Z,3.00
2018-08-12T10:11:45.201Z,1.80
2018-08-12T10:14:17.681Z,2.00
2018-08-12T10:16:51.689Z,2.00
2018-08-12T10:19:24.268Z,2.00
2018-08-12T10:21:56.578Z,1.20
2018-08-12T10:24:34.391Z,2.00
2018-08-12T10:27:05.503Z,1.00
2018-08-12T10:29:37.545Z,1.80
2018-08-12T10:32:09.149Z,2.00
2018-08-12T10:34:42.905Z,2.00
2018-08-12T10:37:15.408Z,4.00
2018-08-12T10:39:46.558Z,2.40
2018-08-12T10:42:18.929Z,3.00
2018-08-12T10:44:54.467Z,2.00
2018-08-12T10:47:26.311Z,2.00
2018-08-12T10:50:21.368Z,2.00
2018-08-12T10:52:54.426Z,2.00
2018-08-12T10:55:26.083Z,2.00
2018-08-12T10:57:57.841Z,1.20
2018-08-12T11:00:33.579Z,1.14
2018-08-12T11:03:05.598Z,2.00
2018-08-12T11:05:41.619Z,3.00
2018-08-12T11:08:15.179Z,1.60
2018-08-12T11:10:46.690Z,2.00
2018-08-12T11:13:21.117Z,1.29
2018-08-12T11:15:56.586Z,2.00
2018-08-12T11:18:28.540Z,2.00
2018-08-12T11:20:59.703Z,2.00
2018-08-12T11:23:31.805Z,1.60
2018-08-12T11:26:04.051Z,2.80
2018-08-12T11:28:37.884Z,2.00
2018-08-12T11:31:09.484Z,3.00
2018-08-12T11:33:42.193Z,2.00
2018-08-12T11:36:14.694Z,2.00
2018-08-12T11:38:48.644Z,2.40
2018-08-12T11:41:21.728Z,2.00
2018-08-12T11:43:55.207Z,2.00
2018-08-12T11:46:27.850Z,2.00
2018-08-12T11:49:00.960Z,2.00
2018-08-12T11:51:32.578Z,2.00
2018-08-12T11:54:08.019Z,2.00
2018-08-12T11:56:45.784Z,2.00
2018-08-12T11:59:17.785Z,2.20
2018-08-12T12:01:50.791Z,2.20
2018-08-12T12:04:21.925Z,2.00
2018-08-12T12:06:55.267Z,2.00
2018-08-12T12:12:10.094Z,2.00
2018-08-12T12:14:43.645Z,2.60
2018-08-12T12:17:14.709Z,2.00
2018-08-12T12:19:47.659Z,2.60
2018-08-12T12:25:17.449Z,2.00
2018-08-12T12:27:49.604Z,1.80
2018-08-12T12:30:25.046Z,1.20
2018-08-12T12:32:56.401Z,2.20
2018-08-12T12:35:28.739Z,2.00
2018-08-12T12:38:00.028Z,2.00
2018-08-12T12:40:32.796Z,2.80
2018-08-12T12:43:05.988Z,2.00
2018-08-12T12:45:38.619Z,2.00
2018-08-12T12:48:10.458Z,2.20
2018-08-12T12:50:44.657Z,2.00
2018-08-12T12:53:19.895Z,2.43
2018-08-12T12:55:51.045Z,1.80
2018-08-12T12:58:22.334Z,2.00
2018-08-12T13:00:54.389Z,1.60
2018-08-12T13:03:26.369Z,2.00
2018-08-12T13:05:57.819Z,2.00
2018-08-12T13:08:31.124Z,2.40
2018-08-12T13:11:02.775Z,2.00
2018-08-12T13:13:37.409Z,2.60
2018-08-12T13:16:10.220Z,2.00
2018-08-12T13:18:41.802Z,2.00
2018-08-12T13:21:13.911Z,2.00
2018-08-12T13:23:46.680Z,2.00
2018-08-12T13:26:20.787Z,2.00
2018-08-12T13:28:51.927Z,2.00
2018-08-12T13:31:24.548Z,2.80
2018-08-12T13:33:58.349Z,1.60
2018-08-12T13:36:31.373Z,2.00
2018-08-12T13:39:06.605Z,2.00
2018-08-12T13:41:38.591Z,2.80
2018-08-12T13:44:14.618Z,2.29
2018-08-12T13:46:47.598Z,3.00
2018-08-12T13:49:22.567Z,2.14
2018-08-12T13:51:59.155Z,2.00
2018-08-12T13:54:31.885Z,1.86
2018-08-12T13:57:04.500Z,2.40
2018-08-12T13:59:35.820Z,2.60
2018-08-12T14:02:08.494Z,2.80
2018-08-12T14:04:41.749Z,2.00
2018-08-12T14:07:14.557Z,1.29
2018-08-12T14:09:47.039Z,2.60
2018-08-12T14:12:20.869Z,3.00
2018-08-12T14:14:52.725Z,2.20
2018-08-12T14:17:24.619Z,2.20
2018-08-12T14:19:56.561Z,2.60
2018-08-12T14:22:27.630Z,2.00
2018-08-12T14:25:02.473Z,2.40
2018-08-12T14:27:33.602Z,3.00
2018-08-12T14:30:08.333Z,3.40
2018-08-12T14:32:40.117Z,2.20
2018-08-12T14:35:14.413Z,3.00
2018-08-12T14:37:46.702Z,2.00
2018-08-12T14:40:18.418Z,2.40
2018-08-12T14:42:49.521Z,3.00
2018-08-12T14:45:37.486Z,3.80
2018-08-12T14:48:11.121Z,2.71
2018-08-12T14:50:42.239Z,2.60
2018-08-12T14:53:16.614Z,2.20
2018-08-12T14:55:50.091Z,2.86
2018-08-12T14:58:25.627Z,3.20
2018-08-12T15:00:57.673Z,3.20
2018-08-12T15:03:30.578Z,3.80
2018-08-12T15:06:12.924Z,2.00
2018-08-12T15:08:44.266Z,3.00
2018-08-12T15:11:17.480Z,3.43
2018-08-12T15:13:50.452Z,3.50
2018-08-12T15:16:23.299Z,3.43
2018-08-12T15:18:54.293Z,3.60
2018-08-12T15:21:28.077Z,3.00
2018-08-12T15:24:00.792Z,2.40
2018-08-12T15:26:32.184Z,4.00
2018-08-12T15:29:06.956Z,2.60
2018-08-12T15:31:40.355Z,2.43
2018-08-12T15:34:13.807Z,3.00
2018-08-12T15:36:45.658Z,4.00
2018-08-12T15:39:17.774Z,2.60
2018-08-12T15:41:49.740Z,2.40
2018-08-12T15:44:22.110Z,2.40
2018-08-12T15:46:54.649Z,2.60
2018-08-12T15:49:25.984Z,2.60
2018-08-12T15:51:57.059Z,3.80
2018-08-12T15:54:28.072Z,3.80
2018-08-12T15:57:01.972Z,1.40
2018-08-12T15:59:33.741Z,3.00
2018-08-12T16:02:05.408Z,3.60
2018-08-12T16:04:36.482Z,3.00
2018-08-12T16:07:10.425Z,3.60
2018-08-12T16:09:42.718Z,2.20
2018-08-12T16:12:14.111Z,3.20
2018-08-12T16:14:45.923Z,2.60
2018-08-12T16:17:18.161Z,2.20
2018-08-12T16:19:49.229Z,2.40
2018-08-12T16:22:20.491Z,2.40
2018-08-12T16:24:51.737Z,2.60
2018-08-12T16:27:22.782Z,2.20
2018-08-12T16:29:56.429Z,4.00
2018-08-12T16:32:29.192Z,3.20
2018-08-12T16:35:02.191Z,2.60
2018-08-12T16:37:33.248Z,4.40
2018-08-12T16:40:05.006Z,1.40
2018-08-12T16:42:37.161Z,2.20
2018-08-12T16:45:12.825Z,1.60
2018-08-12T16:47:46.569Z,3.14
2018-08-12T16:50:17.663Z,2.60
2018-08-12T16:52:48.698Z,3.40
2018-08-12T16:55:21.777Z,3.00
2018-08-12T16:57:53.378Z,3.00
2018-08-12T17:00:25.475Z,2.20
2018-08-12T17:02:56.554Z,3.00
2018-08-12T17:05:27.606Z,2.00
2018-08-12T17:07:58.928Z,2.00
2018-08-12T17:10:30.842Z,2.00
2018-08-12T17:13:01.928Z,3.60
2018-08-12T17:15:33.039Z,3.00
2018-08-12T17:18:05.378Z,3.00
2018-08-12T17:20:38.070Z,3.00
2018-08-12T17:23:10.374Z,2.20
2018-08-12T17:25:44.937Z,3.00
2018-08-12T17:28:16.070Z,3.00
2018-08-12T17:30:47.591Z,3.00
2018-08-12T17:33:22.064Z,3.00
2018-08-12T17:35:53.409Z,3.00
2018-08-12T17:38:24.755Z,2.00
2018-08-12T17:40:57.736Z,3.00
2018-08-12T17:43:30.005Z,3.40
2018-08-12T17:46:01.268Z,3.00
2018-08-12T17:48:32.442Z,3.40
2018-08-12T17:51:03.540Z,3.00
2018-08-12T17:53:35.930Z,2.60
2018-08-12T17:56:07.921Z,2.60
2018-08-12T17:58:39.814Z,3.00
2018-08-12T18:01:11.747Z,3.00
2018-08-12T18:03:45.070Z,3.60
2018-08-12T18:06:16.769Z,4.40
2018-08-12T18:08:47.855Z,3.00
2018-08-12T18:11:19.555Z,4.00
2018-08-12T18:13:51.058Z,3.00
2018-08-12T18:16:23.038Z,4.00
2018-08-12T18:18:56.459Z,4.00
2018-08-12T18:21:27.621Z,4.80
2018-08-12T18:23:58.718Z,3.60
2018-08-12T18:26:30.642Z,4.40
2018-08-12T18:29:02.426Z,4.20
2018-08-12T18:31:36.738Z,3.20
2018-08-12T18:34:08.750Z,3.80
2018-08-12T18:36:40.272Z,5.00
2018-08-12T18:39:13.806Z,4.00
2018-08-12T18:41:44.932Z,5.20
2018-08-12T18:44:17.167Z,4.00
2018-08-12T18:46:48.842Z,5.00
2018-08-12T18:49:20.850Z,4.00
2018-08-12T18:51:53.010Z,4.20
2018-08-12T18:54:24.047Z,5.00
2018-08-12T18:56:56.338Z,5.00
2018-08-12T18:59:32.298Z,3.20
2018-08-12T19:02:04.224Z,3.00
2018-08-12T19:04:41.751Z,3.40
2018-08-12T19:07:13.169Z,3.80
2018-08-12T19:09:46.405Z,3.20
2018-08-12T19:12:18.441Z,4.00
2018-08-12T19:14:50.517Z,3.80
2018-08-12T19:17:26.105Z,3.00
2018-08-12T19:20:00.596Z,2.80
2018-08-12T19:22:34.865Z,3.60
2018-08-12T19:25:07.762Z,4.00
2018-08-12T19:27:40.924Z,3.40
2018-08-12T19:30:15.452Z,4.00
2018-08-12T19:32:47.415Z,3.00
2018-08-12T19:35:23.927Z,3.00
2018-08-12T19:38:00.541Z,4.00
2018-08-12T19:40:31.651Z,3.00
2018-08-12T19:43:03.954Z,3.00
2018-08-12T19:45:35.168Z,3.00
2018-08-12T19:48:06.662Z,3.00
2018-08-12T19:50:40.498Z,3.00
2018-08-12T19:53:11.761Z,4.00
2018-08-12T19:55:45.741Z,4.00
2018-08-12T19:58:16.843Z,3.20
2018-08-12T20:00:48.180Z,4.60
2018-08-12T20:03:19.383Z,3.00
2018-08-12T20:05:52.792Z,4.00
2018-08-12T20:08:27.009Z,3.40
2018-08-12T20:10:58.992Z,4.00
2018-08-12T20:13:29.935Z,4.00
2018-08-12T20:16:02.757Z,3.00
2018-08-12T20:18:36.876Z,4.00
2018-08-12T20:21:08.351Z,2.20
2018-08-12T20:23:40.213Z,3.00
2018-08-12T20:26:11.873Z,4.00
2018-08-12T20:28:45.087Z,3.00
2018-08-12T20:31:18.428Z,3.00
2018-08-12T20:33:51.430Z,2.40
2018-08-12T20:36:23.261Z,3.00
2018-08-12T20:38:56.172Z,3.00
2018-08-12T20:41:27.562Z,3.00
2018-08-12T20:43:58.629Z,3.00
2018-08-12T20:46:31.677Z,3.00
2018-08-12T20:49:02.854Z,3.00
2018-08-12T20:51:36.910Z,2.60
2018-08-12T20:54:10.196Z,3.20
2018-08-12T20:56:41.353Z,3.80
2018-08-12T20:59:14.524Z,3.00
2018-08-12T21:01:49.095Z,2.80
2018-08-12T21:04:22.068Z,2.00
2018-08-12T21:06:54.198Z,3.00
2018-08-12T21:09:25.769Z,3.20
2018-08-12T21:11:57.554Z,3.00
2018-08-12T21:14:29.208Z,2.00
2018-08-12T21:17:01.368Z,3.00
2018-08-12T21:19:34.457Z,3.00
2018-08-12T21:22:04.805Z,2.67
2018-08-12T21:24:36.877Z,2.00
2018-08-12T21:27:09.530Z,3.00
2018-08-12T21:29:41.689Z,2.80
2018-08-12T21:32:12.854Z,2.80
2018-08-12T21:34:44.937Z,4.40
2018-08-12T21:37:16.933Z,3.00
2018-08-12T21:39:47.972Z,4.00
2018-08-12T21:42:21.514Z,3.40
2018-08-12T21:44:54.583Z,3.40
2018-08-12T21:47:27.618Z,2.40
2018-08-12T21:49:58.695Z,2.20
2018-08-12T21:52:30.442Z,2.80
2018-08-12T21:55:02.307Z,3.20
2018-08-12T21:57:35.451Z,2.80
2018-08-12T22:00:16.624Z,3.00
2018-08-12T22:02:48.426Z,2.00
2018-08-12T22:05:21.415Z,3.00
2018-08-12T22:07:58.064Z,3.00
2018-08-12T22:10:29.290Z,2.33
2018-08-12T22:13:00.590Z,4.20
2018-08-12T22:15:31.994Z,3.80
2018-08-12T22:18:03.252Z,5.20
2018-08-12T22:20:33.780Z,6.00
2018-08-12T22:23:04.707Z,7.00
2018-08-12T22:25:36.354Z,6.33
2018-08-12T22:28:08.421Z,7.00
2018-08-12T22:30:39.613Z,6.00
2018-08-12T22:33:10.697Z,6.00
2018-08-12T22:35:42.272Z,5.67
2018-08-12T22:38:14.613Z,6.00
2018-08-12T22:40:46.764Z,5.00
2018-08-12T22:43:18.399Z,3.00
2018-08-12T22:45:51.965Z,6.00
2018-08-12T22:48:24.340Z,3.80
2018-08-12T22:50:56.254Z,4.60
2018-08-12T22:53:27.196Z,5.00
2018-08-12T22:55:59.583Z,6.00
2018-08-12T22:58:31.753Z,5.00
2018-08-12T23:01:04.524Z,5.60
2018-08-12T23:03:37.210Z,5.20
2018-08-12T23:06:08.282Z,5.00
2018-08-12T23:08:40.507Z,5.00
2018-08-12T23:11:13.640Z,5.00
2018-08-12T23:13:44.845Z,5.33
2018-08-12T23:16:29.071Z,4.20
2018-08-12T23:19:01.779Z,3.00
2018-08-12T23:21:34.667Z,4.33
2018-08-12T23:24:06.316Z,4.60
2018-08-12T23:26:38.139Z,4.20
2018-08-12T23:29:08.702Z,3.00
2018-08-12T23:31:40.594Z,3.80
2018-08-12T23:34:12.084Z,4.20
2018-08-12T23:36:43.205Z,5.60
2018-08-12T23:39:14.302Z,3.00
2018-08-12T23:41:44.588Z,5.33
2018-08-12T23:44:15.143Z,3.00
2018-08-12T23:46:46.201Z,3.00
2018-08-12T23:49:17.255Z,5.00
2018-08-12T23:51:48.334Z,3.00
2018-08-12T23:54:19.377Z,5.00
2018-08-12T23:56:49.603Z,5.67
2018-08-12T23:59:20.677Z,3.80
